Station: Gove Airport  

  Atmospheric Gas Attenuation - ITU Rec 676-11   ----------------- dB/100km -----------------
Date Time Temp RH % AH g/m3 Dew Point Wind Direction Speed kph Gust kph Barometer mB Rainfall Since 9am 24GHz 47GHz 76GHz 122GHz 134GHz 241GHz
07/05 16:50 27.8 72 19.37 22.3 26 30 1010.3 0.2 41.5 39.3 75.9 200.9 221.6 770.1
07/05 16:40 28.2 69 18.97 22 30 32 1010.1 0.2 40.6 38.4 73.7 195.0 214.5 745.4
07/05 16:30 28.7 71 20.06 22.9 24 32 1010.2 0.2 42.8 40.1 78.2 206.9 229.2 796.7
07/05 16:20 28.8 70 19.89 22.8 24 30 1010.2 0.2 42.5 39.8 77.3 204.5 226.4 786.8
07/05 16:10 28.6 68 19.11 22.3 26 28 1010.1 0.2 40.8 38.4 73.9 195.6 215.4 748.6
07/05 16:00 28.5 69 19.29 22.3 28 37 1010.2 0.2 41.2 38.8 74.8 198.0 218.4 758.9
07/05 15:50 28.7 68 19.22 22.4 30 33 1010.1 0.2 41.1 38.6 74.3 196.7 216.7 753.3
07/05 15:40 28.3 73 20.18 23 22 26 1010.2 0.2 43.1 40.5 79.1 209.4 232.3 807.2
07/05 15:30 28.2 73 20.07 22.9 26 35 1010.1 0.2 42.9 40.4 78.7 208.3 230.9 802.4
07/05 15:20 29.2 70 20.33 23.2 26 30 1010.1 0.2 43.3 40.4 78.9 208.8 231.7 805.5
07/05 15:10 29.4 68 19.96 22.9 22 24 1010.1 0.2 42.5 39.6 77.0 203.7 225.6 784.2
07/05 15:00 28.7 71 20.06 22.9 28 37 1010.1 0.2 42.8 40.1 78.1 206.8 229.2 796.7
07/05 14:50 29.9 70 21.12 23.8 22 26 1010.1 0.2 44.9 41.5 81.8 216.5 241.4 839.3
07/05 14:40 29.9 62 18.7 21.8 32 37 1010.1 0.2 39.8 37.1 70.9 187.5 205.9 715.6
07/05 14:30 29.6 63 18.7 21.8 28 39 1010.2 0.2 39.9 37.3 71.2 188.3 206.7 718.4
07/05 14:20 29 62 17.81 21.2 28 30 1010.3 0.2 38.1 36.0 67.8 179.4 195.6 679.8
07/05 14:10 30.1 62 18.91 22 30 35 1010.3 0.2 40.3 37.4 71.6 189.5 208.3 724.2
07/05 14:00 29 64 18.39 21.5 26 35 1010.5 0.2 39.3 37.0 70.4 186.2 203.9 708.7
07/05 13:50 29 62 17.81 21 33 39 1010.6 0.2 38.1 36.0 67.9 179.5 195.7 680.0
07/05 13:40 29.6 60 17.81 21 26 30 1010.7 0.2 38.0 35.7 67.3 178.1 194.1 674.8
07/05 13:30 29 62 17.81 21 30 43 1010.8 0.2 38.1 36.0 67.9 179.5 195.7 680.1
07/05 13:20 30 61 18.5 21.7 35 39 1010.9 0.2 39.4 36.8 70.0 185.1 202.9 705.1
07/05 13:10 29.3 66 19.27 22.3 32 35 1011 0.2 41.1 38.4 74.0 195.9 215.9 750.4
07/05 13:00 29.1 64 18.49 21.6 32 39 1011.1 0.2 39.5 37.1 70.8 187.2 205.2 713.0
07/05 12:50 29.4 65 19.08 22.1 30 37 1011.2 0.2 40.7 38.1 73.1 193.4 212.9 739.9
07/05 12:40 30.1 65 19.82 22.8 28 33 1011.2 0.2 42.2 39.1 75.7 200.4 221.6 770.5
07/05 12:30 29.2 68 19.75 22.7 26 33 1011.4 0.2 42.1 39.4 76.3 201.9 223.3 776.1
07/05 12:20 29.2 66 19.17 22.2 30 35 1011.6 0.2 40.9 38.3 73.7 195.0 214.8 746.6
07/05 12:10 28.7 67 18.93 22 32 35 1011.7 0.2 40.4 38.1 73.1 193.4 212.7 739.3
07/05 12:00 29.3 67 19.56 22.5 28 37 1011.8 0.2 41.7 39.0 75.4 199.5 220.2 765.6
07/05 11:50 28.7 68 19.22 22.4 24 28 1012 0.2 41.0 38.7 74.4 197.0 217.0 754.2
07/05 11:40 28.7 67 18.93 22 22 28 1012.2 0.2 40.4 38.1 73.1 193.5 212.8 739.5
07/05 11:30 28.7 66 18.65 21.7 28 39 1012.3 0.2 39.8 37.6 71.9 190.2 208.7 725.4
07/05 11:20 29.8 61 18.3 21.7 28 33 1012.4 0.2 39.0 36.6 69.4 183.5 200.8 697.8
07/05 11:10 28.9 68 19.43 22.4 26 30 1012.6 0.2 41.5 39.0 75.2 199.1 219.6 763.3
07/05 11:00 29.5 66 19.48 22.5 32 41 1012.6 0.2 41.5 38.8 74.9 198.1 218.6 759.9
07/05 10:50 29.2 66 19.17 22.4 30 35 1012.7 0.2 40.9 38.4 73.8 195.2 215.0 747.1
07/05 10:40 29.5 65 19.19 22.2 30 35 1012.8 0.2 40.9 38.3 73.6 194.7 214.4 745.3
07/05 10:30 29.2 66 19.17 22.4 30 37 1012.8 0.2 40.9 38.4 73.8 195.2 215.0 747.2
07/05 10:20 29.6 65 19.29 22.3 30 37 1012.8 0.2 41.1 38.4 73.9 195.6 215.6 749.4
07/05 10:10 29.5 67 19.78 22.7 30 33 1012.8 0.2 42.1 39.3 76.2 201.7 223.1 775.4
07/05 10:00 29 66 18.96 22 30 37 1012.8 0 40.5 38.1 73.0 193.2 212.5 738.5
07/05 09:50 29.2 69 20.04 22.9 30 35 1012.8 0 42.7 40.0 77.7 205.7 227.8 791.9
07/05 09:40 29.1 68 19.64 22.6 24 28 1012.8 0 41.9 39.3 76.0 201.1 222.2 772.2
07/05 09:30 28.7 68 19.22 22.4 28 41 1012.8 0 41.0 38.7 74.5 197.1 217.1 754.7
07/05 09:20 28.4 70 19.46 22.4 28 30 1012.6 0 41.6 39.3 75.9 200.7 221.5 769.9
07/05 09:10 28.5 69 19.29 22.3 30 33 1012.4 0 41.2 38.9 75.0 198.4 218.7 760.0
07/05 09:00 28.2 71 19.52 22.4 32 39 1012.4 0 41.7 39.5 76.3 201.9 223.0 774.9
07/05 08:50 28.3 71 19.63 22.5 32 37 1012.4 13.4 41.9 39.6 76.7 203.0 224.3 779.6
07/05 08:40 28 73 19.85 22.7 26 30 1012.3 13.4 42.4 40.2 78.0 206.5 228.5 794.2
07/05 08:30 27.8 73 19.64 22.5 24 41 1012.3 13.4 42.0 39.9 77.3 204.5 226.0 785.2
07/05 08:20 27.8 74 19.91 22.7 26 30 1012.2 13.4 42.6 40.4 78.5 207.8 230.0 799.4
07/05 08:10 27.5 73 19.31 22.4 28 32 1012.1 13.4 41.4 39.4 76.0 201.2 221.9 770.9
07/05 08:00 27.3 76 19.89 22.7 20 28 1011.9 13.4 42.6 40.6 78.9 208.9 231.2 803.4
07/05 07:50 27 76 19.56 22.4 24 30 1011.8 13.4 41.9 40.1 77.7 205.6 227.1 789.1
07/05 07:40 26.7 77 19.49 22.3 20 24 1011.8 13.4 41.8 40.1 77.7 205.5 226.9 788.5
07/05 07:30 26.3 79 19.56 22.4 17 20 1011.8 13.4 42.0 40.4 78.4 207.5 229.2 796.4
07/05 07:20 26 81 19.72 22.5 15 17 1011.7 13.4 42.4 40.9 79.5 210.3 232.6 808.1
07/05 07:10 25.6 82 19.52 22.3 15 17 1011.6 13.4 42.0 40.7 78.9 208.9 230.7 801.5
07/05 07:00 25.3 83 19.43 22.2 15 20 1011.5 13.4 41.9 40.6 78.8 208.5 230.2 799.8
07/05 06:50 24.9 84 19.23 22 13 15 1011.4 13.4 41.5 40.4 78.3 207.1 228.4 793.2
07/05 06:40 24.9 83 19 21.8 13 15 1011.3 13.4 41.0 40.0 77.2 204.2 224.8 780.7
07/05 06:30 24.9 83 19 21.8 17 20 1011.2 13.4 41.0 40.0 77.2 204.1 224.8 780.7
07/05 06:20 24.7 84 19.01 21.8 15 17 1011.1 13.4 41.0 40.1 77.4 204.8 225.5 783.2
07/05 06:10 24.7 84 19.01 21.8 15 19 1011 13.4 41.0 40.1 77.4 204.8 225.5 783.2
07/05 06:00 24.7 84 19.01 21.8 15 20 1011 13.4 41.0 40.1 77.4 204.8 225.5 783.2
07/05 05:50 24.7 83 18.79 21.6 15 17 1010.9 13.4 40.6 39.7 76.4 202.0 222.1 771.3
07/05 05:40 24.7 83 18.79 21.6 17 19 1010.8 13.4 40.6 39.7 76.3 202.0 222.1 771.2
07/05 05:30 24.6 83 18.68 21.5 15 20 1010.7 13.4 40.3 39.5 75.9 200.8 220.6 766.3
07/05 05:20 24.7 82 18.56 21.4 13 17 1010.7 13.4 40.1 39.2 75.3 199.1 218.5 758.9
07/05 05:10 24.5 83 18.58 21.4 13 17 1010.7 13.4 40.1 39.4 75.6 199.9 219.4 762.0
07/05 05:00 24.7 82 18.56 21.4 15 17 1010.6 13.4 40.1 39.2 75.3 199.1 218.5 758.8
07/05 04:50 24.6 83 18.68 21.5 15 15 1010.6 13.4 40.3 39.5 75.9 200.8 220.6 766.3
07/05 04:40 24.7 83 18.79 21.6 17 19 1010.5 13.4 40.6 39.7 76.3 201.9 222.0 771.1
07/05 04:30 24.8 83 18.89 21.7 15 19 1010.5 13.4 40.8 39.8 76.7 202.9 223.3 775.4
07/05 04:20 24.9 83 19 21.8 17 19 1010.6 13.4 41.0 40.0 77.1 204.0 224.7 780.3
07/05 04:10 25 84 19.34 22.1 15 17 1010.7 13.4 41.7 40.6 78.6 208.1 229.7 797.7
07/05 04:00 25.1 85 19.68 22.4 17 20 1010.7 13.4 42.4 41.2 80.2 212.1 234.6 815.1
07/05 03:50 25.1 85 19.68 22.4 17 19 1010.7 13.4 42.4 41.2 80.2 212.1 234.6 815.1
07/05 03:40 25.2 84 19.55 22.3 15 17 1010.8 13.4 42.1 40.9 79.4 210.2 232.3 807.0
07/05 03:30 25.4 82 19.3 22.1 17 26 1010.8 13.4 41.6 40.3 78.0 206.5 227.8 791.4
07/05 03:20 25.5 82 19.41 22.2 17 19 1010.8 13.4 41.8 40.5 78.5 207.6 229.2 796.2
07/05 03:10 25.6 82 19.52 22.3 15 17 1010.9 13.4 42.0 40.6 78.9 208.7 230.6 801.2
07/05 03:00 25.7 81 19.39 22.2 17 22 1011 13.4 41.7 40.3 78.2 206.8 228.3 793.2
07/05 02:50 25.7 81 19.39 22.2 17 20 1011 13.4 41.7 40.3 78.2 206.8 228.3 793.2
07/05 02:40 25.8 81 19.5 22.3 19 20 1011 13.4 42.0 40.5 78.6 208.0 229.7 798.0
07/05 02:30 25.8 82 19.74 22.5 19 22 1011 13.4 42.5 41.0 79.7 211.0 233.4 810.9
07/05 02:20 25.8 82 19.74 22.5 19 22 1011.1 13.4 42.5 41.0 79.7 211.0 233.4 811.0
07/05 02:10 25.9 82 19.85 22.6 20 24 1011.1 13.4 42.7 41.1 80.2 212.1 234.8 815.9
07/05 02:00 25.9 81 19.61 22.4 20 28 1011.2 13.4 42.2 40.7 79.0 209.1 231.1 803.0
07/05 01:50 25.9 82 19.85 22.6 19 22 1011.2 13.4 42.7 41.1 80.2 212.1 234.9 815.9
07/05 01:40 25.8 83 19.98 22.7 17 19 1011.2 13.4 43.0 41.4 80.9 214.1 237.2 824.1
07/05 01:30 25.9 82 19.85 22.6 19 26 1011.3 13.4 42.7 41.1 80.2 212.1 234.9 816.0
07/05 01:20 25.9 83 20.09 22.8 15 19 1011.4 13.4 43.2 41.6 81.3 215.2 238.6 829.1
07/05 01:10 25.9 83 20.09 22.8 20 22 1011.4 13.4 43.2 41.6 81.3 215.2 238.6 829.1
07/05 01:00 25.9 83 20.09 22.8 17 24 1011.5 13.4 43.2 41.6 81.3 215.2 238.7 829.1
07/05 00:50 25.7 84 20.11 22.8 17 19 1011.6 13.4 43.3 41.8 81.6 216.1 239.6 832.5
07/05 00:40 25.6 85 20.24 22.9 17 19 1011.6 13.4 43.5 42.1 82.4 218.0 242.0 840.7
07/05 00:30 25.5 86 20.36 23 17 24 1011.7 13.4 43.8 42.3 83.1 219.9 244.2 848.5
07/05 00:20 25.3 86 20.13 22.8 15 17 1011.7 13.4 43.3 42.0 82.2 217.5 241.3 838.1

Last Refresh: 07-May-2026 16:55:32

Bureau of Meteorology